createdAt,value
2019-06-08T00:01:52.819Z,24.30
2019-06-08T00:04:22.916Z,24.30
2019-06-08T00:06:52.339Z,24.30
2019-06-08T00:09:22.543Z,24.30
2019-06-08T00:11:51.934Z,24.30
2019-06-08T00:14:21.463Z,24.30
2019-06-08T00:16:50.630Z,24.30
2019-06-08T00:19:20.001Z,24.30
2019-06-08T00:21:48.985Z,24.20
2019-06-08T00:24:17.985Z,24.20
2019-06-08T00:26:47.271Z,24.10
2019-06-08T00:29:16.366Z,24.10
2019-06-08T00:31:45.345Z,24.10
2019-06-08T00:34:14.539Z,23.90
2019-06-08T00:36:43.514Z,23.80
2019-06-08T00:39:14.663Z,23.70
2019-06-08T00:41:43.767Z,23.70
2019-06-08T00:44:12.760Z,23.90
2019-06-08T00:46:41.740Z,23.80
2019-06-08T00:49:10.726Z,23.80
2019-06-08T00:51:39.701Z,23.80
2019-06-08T00:54:08.690Z,23.70
2019-06-08T00:56:37.746Z,23.70
2019-06-08T00:59:07.079Z,23.50
2019-06-08T01:01:36.075Z,23.40
2019-06-08T01:04:05.062Z,23.50
2019-06-08T01:06:34.054Z,23.50
2019-06-08T01:09:03.310Z,23.50
2019-06-08T01:11:32.467Z,23.50
2019-06-08T01:14:01.466Z,23.50
2019-06-08T01:16:30.762Z,23.50
2019-06-08T01:19:00.250Z,23.50
2019-06-08T01:21:29.993Z,23.40
2019-06-08T01:23:59.142Z,23.50
2019-06-08T01:26:28.254Z,23.50
2019-06-08T01:28:58.595Z,23.50
2019-06-08T01:31:28.388Z,23.50
2019-06-08T01:33:57.469Z,23.50
2019-06-08T01:36:27.528Z,23.50
2019-06-08T01:38:56.671Z,23.50
2019-06-08T01:41:25.691Z,23.50
2019-06-08T01:43:54.994Z,23.50
2019-06-08T01:46:23.991Z,23.40
2019-06-08T01:48:53.396Z,23.30
2019-06-08T01:51:22.803Z,23.20
2019-06-08T01:53:51.786Z,23.10
2019-06-08T01:56:20.799Z,23.10
2019-06-08T01:58:49.777Z,23.10
2019-06-08T02:01:18.782Z,23.20
2019-06-08T02:03:47.762Z,23.20
2019-06-08T02:06:17.209Z,23.20
2019-06-08T02:08:46.255Z,23.20
2019-06-08T02:11:15.565Z,23.20
2019-06-08T02:13:44.568Z,23.20
2019-06-08T02:16:13.542Z,23.10
2019-06-08T02:18:50.119Z,23.10
2019-06-08T02:21:13.143Z,23.10
2019-06-08T02:23:42.126Z,23.10
2019-06-08T02:26:12.176Z,23.10
2019-06-08T02:28:41.170Z,23.10
2019-06-08T02:31:10.151Z,23.10
2019-06-08T02:33:40.454Z,23.10
2019-06-08T02:36:09.534Z,23.10
2019-06-08T02:38:39.598Z,23.10
2019-06-08T02:41:08.696Z,23.10
2019-06-08T02:43:38.388Z,23.10
2019-06-08T02:46:08.291Z,23.00
2019-06-08T02:48:56.328Z,23.00
2019-06-08T02:51:08.372Z,23.00
2019-06-08T02:53:38.379Z,23.00
2019-06-08T02:56:07.474Z,23.00
2019-06-08T02:58:40.297Z,22.90
2019-06-08T03:01:08.477Z,22.80
2019-06-08T03:03:38.372Z,22.70
2019-06-08T03:06:08.405Z,22.60
2019-06-08T03:08:39.240Z,22.50
2019-06-08T03:11:08.015Z,22.40
2019-06-08T03:13:38.421Z,22.30
2019-06-08T03:16:07.627Z,22.50
2019-06-08T03:18:38.272Z,22.60
2019-06-08T03:21:07.212Z,22.60
2019-06-08T03:23:36.361Z,22.70
2019-06-08T03:26:05.885Z,22.70
2019-06-08T03:28:37.125Z,22.70
2019-06-08T03:31:05.794Z,22.60
2019-06-08T03:33:40.161Z,22.60
2019-06-08T03:36:06.124Z,22.60
2019-06-08T03:38:35.780Z,22.50
2019-06-08T03:41:04.866Z,22.40
2019-06-08T03:43:35.339Z,22.40
2019-06-08T03:46:04.823Z,22.50
2019-06-08T03:48:35.102Z,22.50
2019-06-08T03:51:05.023Z,22.50
2019-06-08T03:53:35.722Z,22.50
2019-06-08T03:56:05.538Z,22.50
2019-06-08T03:58:36.477Z,22.50
2019-06-08T04:01:06.138Z,22.40
2019-06-08T04:03:37.511Z,22.40
2019-06-08T04:06:06.690Z,22.40
2019-06-08T04:08:37.772Z,22.40
2019-06-08T04:11:06.680Z,22.40
2019-06-08T04:13:35.667Z,22.30
2019-06-08T04:16:04.642Z,22.30
2019-06-08T04:18:33.639Z,22.40
2019-06-08T04:21:02.707Z,22.50
2019-06-08T04:23:31.677Z,22.50
2019-06-08T04:26:00.672Z,22.60
2019-06-08T04:28:29.655Z,22.60
2019-06-08T04:30:58.645Z,22.70
2019-06-08T04:33:28.101Z,22.70
2019-06-08T04:35:57.099Z,22.80
2019-06-08T04:38:26.081Z,22.90
2019-06-08T04:40:55.074Z,22.90
2019-06-08T04:43:24.434Z,23.00
2019-06-08T04:45:53.440Z,23.10
2019-06-08T04:48:22.421Z,23.20
2019-06-08T04:50:51.796Z,23.40
2019-06-08T04:53:20.822Z,23.60
2019-06-08T04:55:49.807Z,23.70
2019-06-08T04:58:18.831Z,23.80
2019-06-08T05:00:50.108Z,24.00
2019-06-08T05:03:18.817Z,24.10
2019-06-08T05:05:49.891Z,24.30
2019-06-08T05:08:18.413Z,24.50
2019-06-08T05:10:47.598Z,24.70
2019-06-08T05:13:17.344Z,24.80
2019-06-08T05:15:47.387Z,25.00
2019-06-08T05:18:16.446Z,25.10
2019-06-08T05:20:47.361Z,25.20
2019-06-08T05:23:16.042Z,25.30
2019-06-08T05:25:45.168Z,25.40
2019-06-08T05:28:14.209Z,25.50
2019-06-08T05:30:43.272Z,25.70
2019-06-08T05:33:12.668Z,25.80
2019-06-08T05:35:43.365Z,25.90
2019-06-08T05:38:12.455Z,26.10
2019-06-08T05:40:41.528Z,26.20
2019-06-08T05:43:10.901Z,26.30
2019-06-08T05:45:39.891Z,26.10
2019-06-08T05:48:08.883Z,26.40
2019-06-08T05:50:54.098Z,26.70
2019-06-08T05:53:08.907Z,26.90
2019-06-08T05:55:37.885Z,27.00
2019-06-08T05:58:07.220Z,27.30
2019-06-08T06:00:36.193Z,27.40
2019-06-08T06:03:05.182Z,27.40
2019-06-08T06:05:34.156Z,27.50
2019-06-08T06:08:16.129Z,27.70
2019-06-08T06:10:34.842Z,27.80
2019-06-08T06:13:04.098Z,28.00
2019-06-08T06:15:33.121Z,28.00
2019-06-08T06:18:02.435Z,28.30
2019-06-08T06:20:31.472Z,28.60
2019-06-08T06:23:00.930Z,28.80
2019-06-08T06:25:29.931Z,28.80
2019-06-08T06:27:58.918Z,28.70
2019-06-08T06:30:27.920Z,28.80
2019-06-08T06:32:57.325Z,28.90
2019-06-08T06:35:26.312Z,29.00
2019-06-08T06:37:55.294Z,29.00
2019-06-08T06:40:24.283Z,29.20
2019-06-08T06:42:53.594Z,29.30
2019-06-08T06:45:22.595Z,29.30
2019-06-08T06:47:52.675Z,29.40
2019-06-08T06:50:22.537Z,29.50
2019-06-08T06:52:52.851Z,29.60
2019-06-08T06:55:25.250Z,29.60
2019-06-08T06:57:53.565Z,29.60
2019-06-08T07:00:32.248Z,29.70
2019-06-08T07:03:01.474Z,29.90
2019-06-08T07:05:31.534Z,29.90
2019-06-08T07:08:00.512Z,30.10
2019-06-08T07:10:29.831Z,30.30
2019-06-08T07:12:58.828Z,30.30
2019-06-08T07:15:28.392Z,30.30
2019-06-08T07:17:58.622Z,30.40
2019-06-08T07:20:27.730Z,30.60
2019-06-08T07:22:59.001Z,30.50
2019-06-08T07:25:28.211Z,30.60
2019-06-08T07:27:57.198Z,30.60
2019-06-08T07:30:26.211Z,30.70
2019-06-08T07:32:55.586Z,30.70
2019-06-08T07:35:24.578Z,30.70
2019-06-08T07:37:53.758Z,30.70
2019-06-08T07:40:23.141Z,30.70
2019-06-08T07:42:53.385Z,30.70
2019-06-08T07:45:23.036Z,30.80
2019-06-08T07:47:53.954Z,30.90
2019-06-08T07:50:23.038Z,30.90
2019-06-08T07:52:52.885Z,30.90
2019-06-08T07:55:21.959Z,30.90
2019-06-08T07:57:52.312Z,31.10
2019-06-08T08:00:21.260Z,31.20
2019-06-08T08:02:50.272Z,31.10
2019-06-08T08:05:19.231Z,31.20
2019-06-08T08:07:48.385Z,31.20
2019-06-08T08:10:17.519Z,31.10
2019-06-08T08:12:46.649Z,31.20
2019-06-08T08:15:16.063Z,31.20
2019-06-08T08:17:45.449Z,31.30
2019-06-08T08:20:14.908Z,31.40
2019-06-08T08:22:43.906Z,31.40
2019-06-08T08:25:12.899Z,31.60
2019-06-08T08:27:41.878Z,31.60
2019-06-08T08:30:11.239Z,31.80
2019-06-08T08:32:40.218Z,31.80
2019-06-08T08:35:09.240Z,31.90
2019-06-08T08:37:38.312Z,31.80
2019-06-08T08:40:08.774Z,31.70
2019-06-08T08:42:38.588Z,31.60
2019-06-08T08:45:08.690Z,31.60
2019-06-08T08:47:38.679Z,31.70
2019-06-08T08:50:08.308Z,31.90
2019-06-08T08:52:40.515Z,31.80
2019-06-08T08:55:08.420Z,31.70
2019-06-08T08:57:38.572Z,31.80
2019-06-08T09:00:08.672Z,31.90
2019-06-08T09:02:37.887Z,31.80
2019-06-08T09:05:08.666Z,31.80
2019-06-08T09:07:38.509Z,31.80
2019-06-08T09:10:11.354Z,32.00
2019-06-08T09:12:39.723Z,32.00
2019-06-08T09:15:08.980Z,31.90
2019-06-08T09:17:38.816Z,31.90
2019-06-08T09:20:11.049Z,31.90
2019-06-08T09:22:52.564Z,32.00
2019-06-08T09:25:09.351Z,32.00
2019-06-08T09:27:38.503Z,32.10
2019-06-08T09:30:08.297Z,32.10
2019-06-08T09:32:38.190Z,32.10
2019-06-08T09:35:09.387Z,32.20
2019-06-08T09:37:39.070Z,32.20
2019-06-08T09:40:08.063Z,32.10
2019-06-08T09:42:37.324Z,32.00
2019-06-08T09:45:09.015Z,31.90
2019-06-08T09:47:38.116Z,31.90
2019-06-08T09:50:09.269Z,31.80
2019-06-08T09:52:40.912Z,31.90
2019-06-08T09:55:09.253Z,31.90
2019-06-08T09:57:38.979Z,31.80
2019-06-08T10:00:15.310Z,32.20
2019-06-08T10:02:38.767Z,32.50
2019-06-08T10:05:08.831Z,32.60
2019-06-08T10:07:38.869Z,32.70
2019-06-08T10:10:09.786Z,32.30
2019-06-08T10:12:40.935Z,32.10
2019-06-08T10:15:11.158Z,31.90
2019-06-08T10:17:40.134Z,31.80
2019-06-08T10:20:10.064Z,31.90
2019-06-08T10:22:39.314Z,31.80
2019-06-08T10:25:11.038Z,31.80
2019-06-08T10:27:39.315Z,31.80
2019-06-08T10:30:10.078Z,31.70
2019-06-08T10:32:39.996Z,31.70
2019-06-08T10:35:10.429Z,31.60
2019-06-08T10:37:40.126Z,31.70
2019-06-08T10:40:09.181Z,31.70
2019-06-08T10:42:40.229Z,31.60
2019-06-08T10:45:14.250Z,31.50
2019-06-08T10:47:40.659Z,31.50
2019-06-08T10:50:15.119Z,31.40
2019-06-08T10:52:41.220Z,31.50
2019-06-08T10:55:12.158Z,31.40
2019-06-08T10:57:41.172Z,31.30
2019-06-08T11:00:20.173Z,31.30
2019-06-08T11:02:42.673Z,31.10
2019-06-08T11:05:14.172Z,31.10
2019-06-08T11:07:43.414Z,30.90
2019-06-08T11:10:12.772Z,30.80
2019-06-08T11:12:42.391Z,30.90
2019-06-08T11:15:11.829Z,31.00
2019-06-08T11:17:41.384Z,30.90
2019-06-08T11:20:13.124Z,30.80
2019-06-08T11:22:40.974Z,30.90
2019-06-08T11:25:16.018Z,30.80
2019-06-08T11:27:40.899Z,30.80
2019-06-08T11:30:19.691Z,30.80
2019-06-08T11:32:40.475Z,30.70
2019-06-08T11:35:12.321Z,30.70
2019-06-08T11:37:40.961Z,30.90
2019-06-08T11:40:12.364Z,30.80
2019-06-08T11:42:40.844Z,30.80
2019-06-08T11:45:12.696Z,30.80
2019-06-08T11:47:41.803Z,30.80
2019-06-08T11:50:13.200Z,30.60
2019-06-08T11:52:42.025Z,30.60
2019-06-08T11:55:12.891Z,30.60
2019-06-08T11:57:41.612Z,30.60
2019-06-08T12:00:24.262Z,30.50
2019-06-08T12:02:43.530Z,30.50
2019-06-08T12:05:14.224Z,30.60
2019-06-08T12:07:43.330Z,30.60
2019-06-08T12:10:13.812Z,30.70
2019-06-08T12:12:43.309Z,30.60
2019-06-08T12:15:13.677Z,30.60
2019-06-08T12:17:42.887Z,30.60
2019-06-08T12:20:17.057Z,30.60
2019-06-08T12:22:42.830Z,30.60
2019-06-08T12:25:12.207Z,30.50
2019-06-08T12:27:41.667Z,30.50
2019-06-08T12:30:17.361Z,30.60
2019-06-08T12:32:41.255Z,30.60
2019-06-08T12:35:12.138Z,30.50
2019-06-08T12:37:41.386Z,30.40
2019-06-08T12:40:13.291Z,30.50
2019-06-08T12:42:40.986Z,30.50
2019-06-08T12:45:11.147Z,30.50
2019-06-08T12:47:40.287Z,30.50
2019-06-08T12:50:13.088Z,30.50
2019-06-08T12:52:43.017Z,30.50
2019-06-08T12:55:14.452Z,30.40
2019-06-08T12:57:41.866Z,30.40
2019-06-08T13:00:11.916Z,30.30
2019-06-08T13:02:41.629Z,30.30
2019-06-08T13:05:13.742Z,30.30
2019-06-08T13:07:42.658Z,30.30
2019-06-08T13:10:13.058Z,30.30
2019-06-08T13:12:42.562Z,30.30
2019-06-08T13:15:12.876Z,30.40
2019-06-08T13:17:42.046Z,30.40
2019-06-08T13:20:14.871Z,30.30
2019-06-08T13:22:43.848Z,30.40
2019-06-08T13:25:23.905Z,30.30
2019-06-08T13:27:43.799Z,30.30
2019-06-08T13:30:17.259Z,30.30
2019-06-08T13:32:44.125Z,30.20
2019-06-08T13:35:14.347Z,30.30
2019-06-08T13:37:43.357Z,30.30
2019-06-08T13:40:13.165Z,30.10
2019-06-08T13:42:42.302Z,30.10
2019-06-08T13:45:11.444Z,30.10
2019-06-08T13:47:41.408Z,30.20
2019-06-08T13:50:10.990Z,30.10
2019-06-08T13:52:40.546Z,30.10
2019-06-08T13:55:09.526Z,30.20
2019-06-08T13:57:38.505Z,30.20
2019-06-08T14:00:08.376Z,30.30
2019-06-08T14:02:39.688Z,30.30
2019-06-08T14:05:08.234Z,30.20
2019-06-08T14:07:38.070Z,30.10
2019-06-08T14:10:07.298Z,30.10
2019-06-08T14:12:38.453Z,30.00
2019-06-08T14:15:08.541Z,30.00
2019-06-08T14:17:37.965Z,29.90
2019-06-08T14:20:08.033Z,30.00
2019-06-08T14:22:38.853Z,30.20
2019-06-08T14:25:10.450Z,30.20
2019-06-08T14:27:39.023Z,30.10
2019-06-08T14:30:08.535Z,30.10
2019-06-08T14:32:38.052Z,30.10
2019-06-08T14:35:08.827Z,30.10
2019-06-08T14:37:38.135Z,30.00
2019-06-08T14:40:08.822Z,29.90
2019-06-08T14:42:38.369Z,30.00
2019-06-08T14:45:10.569Z,30.10
2019-06-08T14:47:38.089Z,30.10
2019-06-08T14:50:07.977Z,30.00
2019-06-08T14:52:38.189Z,30.10
2019-06-08T14:55:08.021Z,30.10
2019-06-08T14:57:37.567Z,30.20
2019-06-08T15:00:09.696Z,30.20
2019-06-08T15:02:38.795Z,30.20
2019-06-08T15:05:07.958Z,30.10
2019-06-08T15:07:38.864Z,30.10
2019-06-08T15:10:10.060Z,30.10
2019-06-08T15:12:39.028Z,30.00
2019-06-08T15:15:11.046Z,30.00
2019-06-08T15:17:38.626Z,30.10
2019-06-08T15:20:08.824Z,30.00
2019-06-08T15:22:38.857Z,30.10
2019-06-08T15:25:11.092Z,30.10
2019-06-08T15:27:39.439Z,30.10
2019-06-08T15:30:08.430Z,30.10
2019-06-08T15:32:38.708Z,30.10
2019-06-08T15:35:08.338Z,30.00
2019-06-08T15:37:40.794Z,30.00
2019-06-08T15:40:08.267Z,30.10
2019-06-08T15:42:37.253Z,30.20
2019-06-08T15:45:08.354Z,30.20
2019-06-08T15:47:40.593Z,30.20
2019-06-08T15:50:08.855Z,30.30
2019-06-08T15:52:38.382Z,30.20
2019-06-08T15:55:10.870Z,30.20
2019-06-08T15:57:40.982Z,30.10
2019-06-08T16:00:10.095Z,30.10
2019-06-08T16:02:39.342Z,30.10
2019-06-08T16:05:08.333Z,30.10
2019-06-08T16:07:37.323Z,30.20
2019-06-08T16:10:07.787Z,30.10
2019-06-08T16:12:36.840Z,30.20
2019-06-08T16:15:06.434Z,30.10
2019-06-08T16:17:35.597Z,30.30
2019-06-08T16:20:04.898Z,30.20
2019-06-08T16:22:33.987Z,30.20
2019-06-08T16:25:03.651Z,30.20
2019-06-08T16:27:33.855Z,30.20
2019-06-08T16:30:09.104Z,30.20
2019-06-08T16:32:35.357Z,30.20
2019-06-08T16:35:05.321Z,30.20
2019-06-08T16:37:35.707Z,30.10
2019-06-08T16:40:05.667Z,30.10
2019-06-08T16:42:34.652Z,30.10
2019-06-08T16:45:04.912Z,30.10
2019-06-08T16:47:35.186Z,30.10
2019-06-08T16:50:06.999Z,30.10
2019-06-08T16:52:36.690Z,30.10
2019-06-08T16:55:06.265Z,30.20
2019-06-08T16:57:38.291Z,30.10
2019-06-08T17:00:29.989Z,30.00
2019-06-08T17:02:37.131Z,30.10
2019-06-08T17:05:06.843Z,30.10
2019-06-08T17:07:35.835Z,30.10
2019-06-08T17:10:05.913Z,30.10
2019-06-08T17:12:35.393Z,30.00
2019-06-08T17:15:06.062Z,30.00
2019-06-08T17:17:36.374Z,30.10
2019-06-08T17:20:05.537Z,30.00
2019-06-08T17:22:34.648Z,30.00
2019-06-08T17:25:08.104Z,30.00
2019-06-08T17:27:36.780Z,30.00
2019-06-08T17:30:08.587Z,30.00
2019-06-08T17:32:38.482Z,30.00
2019-06-08T17:35:09.146Z,29.90
2019-06-08T17:37:38.225Z,29.90
2019-06-08T17:40:07.152Z,29.90
2019-06-08T17:42:37.463Z,29.90
2019-06-08T17:45:07.220Z,29.80
2019-06-08T17:47:36.525Z,29.80
2019-06-08T17:50:06.337Z,29.80
2019-06-08T17:52:35.826Z,29.80
2019-06-08T17:55:05.923Z,29.70
2019-06-08T17:57:47.277Z,29.60
2019-06-08T18:00:06.871Z,29.60
2019-06-08T18:02:39.833Z,29.50
2019-06-08T18:05:07.148Z,29.50
2019-06-08T18:07:39.967Z,29.50
2019-06-08T18:10:07.798Z,29.40
2019-06-08T18:12:40.720Z,29.30
2019-06-08T18:15:07.755Z,29.30
2019-06-08T18:17:39.159Z,29.20
2019-06-08T18:20:09.519Z,29.10
2019-06-08T18:22:41.474Z,29.00
2019-06-08T18:25:09.527Z,28.90
2019-06-08T18:27:40.709Z,28.90
2019-06-08T18:30:11.734Z,28.90
2019-06-08T18:32:40.937Z,28.90
2019-06-08T18:35:10.671Z,28.80
2019-06-08T18:37:41.335Z,28.50
2019-06-08T18:40:10.654Z,28.20
2019-06-08T18:42:41.496Z,27.90
2019-06-08T18:45:10.585Z,27.80
2019-06-08T18:47:40.839Z,27.70
2019-06-08T18:50:10.173Z,27.70
2019-06-08T18:52:41.864Z,27.50
2019-06-08T18:55:10.086Z,27.50
2019-06-08T18:57:41.014Z,27.50
2019-06-08T19:00:11.675Z,27.60
2019-06-08T19:02:43.259Z,27.50
2019-06-08T19:05:10.898Z,27.40
2019-06-08T19:07:41.170Z,27.30
2019-06-08T19:10:10.683Z,27.20
2019-06-08T19:12:41.476Z,27.10
2019-06-08T19:15:11.467Z,27.00
2019-06-08T19:17:47.129Z,27.00
2019-06-08T19:20:11.659Z,26.90
2019-06-08T19:22:43.806Z,26.80
2019-06-08T19:25:11.255Z,26.70
2019-06-08T19:27:43.035Z,26.70
2019-06-08T19:30:10.851Z,26.60
2019-06-08T19:32:41.859Z,26.60
2019-06-08T19:35:10.428Z,26.60
2019-06-08T19:37:39.694Z,26.50
2019-06-08T19:40:08.695Z,26.40
2019-06-08T19:42:47.418Z,26.30
2019-06-08T19:45:08.862Z,26.30
2019-06-08T19:47:38.481Z,26.30
2019-06-08T19:50:07.884Z,26.30
2019-06-08T19:52:41.054Z,26.40
2019-06-08T19:55:08.033Z,26.30
2019-06-08T19:57:37.531Z,26.30
2019-06-08T20:00:07.487Z,26.30
2019-06-08T20:02:36.945Z,26.20
2019-06-08T20:05:07.632Z,26.10
2019-06-08T20:07:37.883Z,26.00
2019-06-08T20:10:07.694Z,25.90
2019-06-08T20:12:37.258Z,25.90
2019-06-08T20:15:08.532Z,25.90
2019-06-08T20:17:37.313Z,25.90
2019-06-08T20:20:10.256Z,25.90
2019-06-08T20:22:37.915Z,25.80
2019-06-08T20:25:10.454Z,25.80
2019-06-08T20:27:38.238Z,25.70
2019-06-08T20:30:09.627Z,25.80
2019-06-08T20:32:37.975Z,25.90
2019-06-08T20:35:07.986Z,25.90
2019-06-08T20:37:38.116Z,25.80
2019-06-08T20:40:13.539Z,25.90
2019-06-08T20:42:38.359Z,25.80
2019-06-08T20:45:08.182Z,25.70
2019-06-08T20:47:39.070Z,25.70
2019-06-08T20:50:07.959Z,25.50
2019-06-08T20:52:37.765Z,25.20
2019-06-08T20:55:07.954Z,25.10
2019-06-08T20:57:37.017Z,24.90
2019-06-08T21:00:09.106Z,25.20
2019-06-08T21:02:37.404Z,25.30
2019-06-08T21:05:07.829Z,25.30
2019-06-08T21:07:37.301Z,25.00
2019-06-08T21:10:08.538Z,25.00
2019-06-08T21:12:37.961Z,25.10
2019-06-08T21:15:07.463Z,25.20
2019-06-08T21:17:38.379Z,25.30
2019-06-08T21:20:08.596Z,25.30
2019-06-08T21:22:37.843Z,25.30
2019-06-08T21:25:08.602Z,25.10
2019-06-08T21:27:38.507Z,25.20
2019-06-08T21:30:19.872Z,25.20
2019-06-08T21:32:38.604Z,25.20
2019-06-08T21:35:07.759Z,25.20
2019-06-08T21:37:37.671Z,25.20
2019-06-08T21:40:08.507Z,25.10
2019-06-08T21:42:37.826Z,25.00
2019-06-08T21:45:09.512Z,25.00
2019-06-08T21:47:37.846Z,25.00
2019-06-08T21:50:08.061Z,25.00
2019-06-08T21:52:37.321Z,25.00
2019-06-08T21:55:07.269Z,24.90
2019-06-08T21:57:37.207Z,25.00
2019-06-08T22:00:26.886Z,24.90
2019-06-08T22:02:39.179Z,24.90
2019-06-08T22:05:08.406Z,24.80
2019-06-08T22:07:37.829Z,24.70
2019-06-08T22:10:07.422Z,24.60
2019-06-08T22:12:40.071Z,24.60
2019-06-08T22:15:07.557Z,24.70
2019-06-08T22:17:38.290Z,24.70
2019-06-08T22:20:08.002Z,24.80
2019-06-08T22:22:37.874Z,24.80
2019-06-08T22:25:08.160Z,24.80
2019-06-08T22:27:38.526Z,24.80
2019-06-08T22:30:15.530Z,24.80
2019-06-08T22:32:40.155Z,24.80
2019-06-08T22:35:09.136Z,24.80
2019-06-08T22:37:38.544Z,24.90
2019-06-08T22:40:08.265Z,24.90
2019-06-08T22:42:37.777Z,24.80
2019-06-08T22:45:08.288Z,24.80
2019-06-08T22:47:38.828Z,24.80
2019-06-08T22:50:08.078Z,24.80
2019-06-08T22:52:37.678Z,24.90
2019-06-08T22:55:10.604Z,24.90
2019-06-08T22:57:37.857Z,25.00
2019-06-08T23:00:16.529Z,25.00
2019-06-08T23:02:39.064Z,25.00
2019-06-08T23:05:09.029Z,25.00
2019-06-08T23:07:38.321Z,25.20
2019-06-08T23:10:08.993Z,25.30
2019-06-08T23:12:38.400Z,25.20
2019-06-08T23:15:07.968Z,25.10
2019-06-08T23:17:38.594Z,25.10
2019-06-08T23:20:08.645Z,25.00
2019-06-08T23:22:38.623Z,25.10
2019-06-08T23:25:09.466Z,25.20
2019-06-08T23:27:38.527Z,25.20
2019-06-08T23:30:10.087Z,25.10
2019-06-08T23:32:38.899Z,25.00
2019-06-08T23:35:09.515Z,24.90
2019-06-08T23:37:38.784Z,24.90
2019-06-08T23:40:07.828Z,24.80
2019-06-08T23:42:38.390Z,24.70
2019-06-08T23:45:10.369Z,24.60
2019-06-08T23:47:38.683Z,24.60
2019-06-08T23:50:11.241Z,24.60
2019-06-08T23:52:38.743Z,24.70
2019-06-08T23:55:10.597Z,24.80
2019-06-08T23:57:38.690Z,24.80
